Terminal Aerodrome Forecast
Issued by NWS Greer, SC

Home | Current Version | Previous Version | Text Only | Print | Product List | Glossary On
Versions: 1 2 3 4 5 6 7 8 9 10 11 12 13 14 15 16 17 18 19 20
000
FTUS42 KGSP 271406 AAB
TAFGSP
TAF AMD
KGSP 271406Z 2714/2812 18006KT P6SM BKN008 BKN016
     FM271500 21006KT P6SM BKN018
     FM271800 21009KT P6SM BKN060 PROB30 2723/2803 4SM TSRA BKN040CB
     FM280400 00000KT P6SM BKN060
     FM281000 00000KT P6SM BKN024=

USA.gov is the U.S. government's official web portal to all federal, state and local government web resources and services.